createdAt,value
2018-09-18T00:00:10.150Z,0.70
2018-09-18T00:02:38.929Z,1.00
2018-09-18T00:05:07.752Z,0.55
2018-09-18T00:07:36.503Z,0.70
2018-09-18T00:10:05.409Z,0.95
2018-09-18T00:12:34.190Z,0.60
2018-09-18T00:15:02.982Z,0.60
2018-09-18T00:17:31.778Z,1.20
2018-09-18T00:20:00.636Z,0.88
2018-09-18T00:22:29.393Z,1.00
2018-09-18T00:24:58.143Z,0.72
2018-09-18T00:27:26.891Z,0.70
2018-09-18T00:29:55.677Z,1.00
2018-09-18T00:32:24.422Z,0.78
2018-09-18T00:34:53.164Z,1.00
2018-09-18T00:37:22.137Z,0.80
2018-09-18T00:39:50.902Z,0.65
2018-09-18T00:42:19.792Z,0.70
2018-09-18T00:44:48.501Z,0.93
2018-09-18T00:47:17.251Z,1.10
2018-09-18T00:49:46.061Z,1.05
2018-09-18T00:52:14.870Z,0.85
2018-09-18T00:54:43.772Z,0.65
2018-09-18T00:57:12.534Z,0.93
2018-09-18T00:59:41.302Z,0.72
2018-09-18T01:02:10.081Z,0.78
2018-09-18T01:04:38.925Z,0.65
2018-09-18T01:07:07.947Z,0.90
2018-09-18T01:09:36.660Z,0.75
2018-09-18T01:12:05.532Z,1.00
2018-09-18T01:14:35.883Z,0.80
2018-09-18T01:17:05.361Z,0.70
2018-09-18T01:19:34.121Z,0.85
2018-09-18T01:22:02.958Z,0.88
2018-09-18T01:24:31.740Z,0.68
2018-09-18T01:27:00.512Z,0.75
2018-09-18T01:29:29.234Z,1.17
2018-09-18T01:31:58.073Z,0.80
2018-09-18T01:34:26.798Z,1.02
2018-09-18T01:36:55.580Z,0.80
2018-09-18T01:39:24.329Z,0.85
2018-09-18T01:41:53.106Z,1.05
2018-09-18T01:44:21.844Z,1.07
2018-09-18T01:46:50.589Z,1.02
2018-09-18T01:49:19.320Z,0.90
2018-09-18T01:51:48.087Z,0.95
2018-09-18T01:54:16.808Z,1.37
2018-09-18T01:56:45.665Z,1.17
2018-09-18T01:59:14.417Z,0.80
2018-09-18T02:01:43.169Z,1.20
2018-09-18T02:04:11.926Z,0.90
2018-09-18T02:06:40.720Z,0.75
2018-09-18T02:09:09.706Z,1.05
2018-09-18T02:11:38.465Z,0.90
2018-09-18T02:14:07.289Z,1.05
2018-09-18T02:16:36.041Z,0.93
2018-09-18T02:19:04.869Z,0.82
2018-09-18T02:21:33.664Z,1.25
2018-09-18T02:24:02.654Z,0.90
2018-09-18T02:26:31.429Z,0.82
2018-09-18T02:29:00.322Z,1.10
2018-09-18T02:31:29.079Z,1.10
2018-09-18T02:33:57.840Z,1.22
2018-09-18T02:36:26.572Z,1.12
2018-09-18T02:38:55.341Z,1.42
2018-09-18T02:41:24.157Z,1.25
2018-09-18T02:43:52.888Z,0.78
2018-09-18T02:46:21.677Z,0.60
2018-09-18T02:48:50.487Z,1.00
2018-09-18T02:51:19.192Z,0.80
2018-09-18T02:53:47.931Z,0.90
2018-09-18T02:56:16.672Z,0.90
2018-09-18T02:58:45.421Z,0.90
2018-09-18T03:01:14.189Z,0.78
2018-09-18T03:03:42.979Z,0.95
2018-09-18T03:06:11.816Z,0.93
2018-09-18T03:08:40.572Z,0.82
2018-09-18T03:11:09.332Z,0.93
2018-09-18T03:13:38.111Z,0.82
2018-09-18T03:16:06.965Z,1.12
2018-09-18T03:18:35.843Z,0.90
2018-09-18T03:21:04.669Z,0.80
2018-09-18T03:23:33.400Z,0.90
2018-09-18T03:26:02.177Z,0.70
2018-09-18T03:28:30.982Z,0.82
2018-09-18T03:30:59.810Z,0.70
2018-09-18T03:33:28.539Z,0.70
2018-09-18T03:35:57.322Z,0.85
2018-09-18T03:38:26.095Z,0.95
2018-09-18T03:40:54.915Z,1.10
2018-09-18T03:43:23.834Z,1.15
2018-09-18T03:45:52.624Z,0.70
2018-09-18T03:48:21.348Z,1.05
2018-09-18T03:50:50.130Z,0.85
2018-09-18T03:53:18.904Z,1.10
2018-09-18T03:55:47.632Z,0.88
2018-09-18T03:58:16.323Z,0.90
2018-09-18T04:00:45.092Z,0.90
2018-09-18T04:03:14.381Z,0.93
2018-09-18T04:05:43.155Z,1.00
2018-09-18T04:08:11.881Z,0.80
2018-09-18T04:10:40.649Z,0.75
2018-09-18T04:13:09.672Z,1.02
2018-09-18T04:15:38.465Z,0.98
2018-09-18T04:18:07.334Z,0.95
2018-09-18T04:20:36.121Z,0.70
2018-09-18T04:23:04.960Z,0.98
2018-09-18T04:25:33.855Z,0.88
2018-09-18T04:28:02.693Z,1.00
2018-09-18T04:30:31.461Z,0.80
2018-09-18T04:33:00.195Z,0.90
2018-09-18T04:35:28.963Z,0.80
2018-09-18T04:37:57.721Z,1.00
2018-09-18T04:40:26.593Z,0.85
2018-09-18T04:42:55.361Z,1.12
2018-09-18T04:45:25.248Z,0.75
2018-09-18T04:47:54.792Z,0.90
2018-09-18T04:50:23.610Z,0.95
2018-09-18T04:52:52.428Z,0.70
2018-09-18T04:55:20.120Z,1.20
2018-09-18T04:57:47.792Z,0.72
2018-09-18T05:00:16.605Z,0.70
2018-09-18T05:02:45.419Z,0.90
2018-09-18T05:05:14.255Z,0.70
2018-09-18T05:07:43.035Z,0.90
2018-09-18T05:10:11.786Z,0.90
2018-09-18T05:12:40.522Z,0.70
2018-09-18T05:15:09.322Z,1.00
2018-09-18T05:17:38.304Z,0.72
2018-09-18T05:20:07.084Z,0.88
2018-09-18T05:22:35.802Z,0.68
2018-09-18T05:25:04.762Z,1.00
2018-09-18T05:27:33.550Z,0.72
2018-09-18T05:30:02.292Z,1.00
2018-09-18T05:32:31.145Z,0.78
2018-09-18T05:34:59.894Z,0.80
2018-09-18T05:37:28.750Z,0.90
2018-09-18T05:39:57.509Z,0.80
2018-09-18T05:42:26.278Z,0.70
2018-09-18T05:44:55.131Z,0.85
2018-09-18T05:47:23.906Z,1.02
2018-09-18T05:49:52.740Z,0.80
2018-09-18T05:52:21.532Z,0.90
2018-09-18T05:54:50.316Z,1.07
2018-09-18T05:57:19.049Z,0.93
2018-09-18T05:59:47.897Z,0.70
2018-09-18T06:02:16.916Z,1.00
2018-09-18T06:04:45.611Z,1.00
2018-09-18T06:07:14.431Z,1.00
2018-09-18T06:09:43.185Z,0.80
2018-09-18T06:12:11.993Z,0.80
2018-09-18T06:14:41.071Z,1.10
2018-09-18T06:17:09.960Z,1.00
2018-09-18T06:19:38.773Z,0.80
2018-09-18T06:22:07.610Z,0.90
2018-09-18T06:24:36.395Z,1.10
2018-09-18T06:27:05.753Z,0.93
2018-09-18T06:29:34.557Z,1.27
2018-09-18T06:32:03.311Z,1.32
2018-09-18T06:34:32.087Z,1.20
2018-09-18T06:37:01.040Z,1.70
2018-09-18T06:39:29.815Z,1.47
2018-09-18T06:41:58.680Z,1.27
2018-09-18T06:44:27.505Z,1.30
2018-09-18T06:46:56.353Z,1.40
2018-09-18T06:49:25.105Z,1.60
2018-09-18T06:51:53.920Z,1.45
2018-09-18T06:54:22.739Z,1.45
2018-09-18T06:56:51.505Z,1.92
2018-09-18T06:59:20.277Z,2.02
2018-09-18T07:01:49.099Z,1.42
2018-09-18T07:04:17.902Z,1.20
2018-09-18T07:06:46.661Z,1.70
2018-09-18T07:09:15.432Z,1.42
2018-09-18T07:11:44.189Z,1.42
2018-09-18T07:14:12.954Z,1.47
2018-09-18T07:16:41.819Z,1.82
2018-09-18T07:19:10.681Z,1.30
2018-09-18T07:21:39.405Z,1.57
2018-09-18T07:24:08.200Z,1.27
2018-09-18T07:26:37.073Z,1.30
2018-09-18T07:29:05.821Z,1.40
2018-09-18T07:31:34.614Z,1.20
2018-09-18T07:34:03.707Z,1.20
2018-09-18T07:36:32.453Z,1.20
2018-09-18T07:39:01.209Z,1.70
2018-09-18T07:41:29.978Z,1.20
2018-09-18T07:43:58.817Z,1.40
2018-09-18T07:46:27.583Z,1.10
2018-09-18T07:49:00.514Z,1.32
2018-09-18T07:51:29.291Z,1.02
2018-09-18T07:53:58.408Z,1.25
2018-09-18T07:56:27.316Z,1.70
2018-09-18T07:58:56.171Z,1.42
2018-09-18T08:01:24.944Z,1.40
2018-09-18T08:03:53.719Z,1.20
2018-09-18T08:06:22.551Z,1.40
2018-09-18T08:08:51.341Z,1.85
2018-09-18T08:11:20.159Z,1.50
2018-09-18T08:13:49.001Z,1.22
2018-09-18T08:16:17.758Z,1.00
2018-09-18T08:18:46.568Z,1.20
2018-09-18T08:21:15.422Z,0.98
2018-09-18T08:23:44.156Z,0.90
2018-09-18T08:26:12.977Z,1.10
2018-09-18T08:28:41.875Z,1.32
2018-09-18T08:31:10.688Z,1.15
2018-09-18T08:33:39.493Z,1.15
2018-09-18T08:36:08.601Z,1.40
2018-09-18T08:38:37.334Z,1.37
2018-09-18T08:41:06.430Z,1.10
2018-09-18T08:43:35.168Z,1.12
2018-09-18T08:46:04.230Z,1.10
2018-09-18T08:48:33.123Z,1.00
2018-09-18T08:51:02.637Z,1.10
2018-09-18T08:53:32.165Z,1.20
2018-09-18T08:56:00.972Z,1.07
2018-09-18T08:58:29.756Z,1.10
2018-09-18T09:00:58.506Z,1.00
2018-09-18T09:03:27.308Z,1.10
2018-09-18T09:05:56.186Z,1.50
2018-09-18T09:08:25.026Z,1.20
2018-09-18T09:10:53.825Z,0.93
2018-09-18T09:13:21.552Z,0.88
2018-09-18T09:15:49.163Z,0.98
2018-09-18T09:18:17.943Z,1.47
2018-09-18T09:20:46.681Z,1.00
2018-09-18T09:23:15.331Z,1.20
2018-09-18T09:25:44.053Z,1.27
2018-09-18T09:28:12.845Z,1.37
2018-09-18T09:30:41.620Z,1.22
2018-09-18T09:33:10.356Z,1.12
2018-09-18T09:35:39.100Z,1.07
2018-09-18T09:38:07.810Z,1.45
2018-09-18T09:40:36.587Z,1.40
2018-09-18T09:43:05.416Z,1.20
2018-09-18T09:45:34.152Z,1.40
2018-09-18T09:48:03.078Z,1.30
2018-09-18T09:50:31.819Z,1.00
2018-09-18T09:53:00.554Z,1.20
2018-09-18T09:55:29.318Z,1.05
2018-09-18T09:57:58.075Z,1.20
2018-09-18T10:00:31.948Z,1.27
2018-09-18T10:03:00.774Z,1.10
2018-09-18T10:05:29.479Z,1.10
2018-09-18T10:07:58.253Z,1.12
2018-09-18T10:10:30.958Z,1.40
2018-09-18T10:12:59.714Z,1.10
2018-09-18T10:15:28.484Z,1.10
2018-09-18T10:17:57.399Z,0.90
2018-09-18T10:20:26.017Z,1.20
2018-09-18T10:22:54.801Z,1.10
2018-09-18T10:25:23.536Z,1.40
2018-09-18T10:27:52.320Z,1.20
2018-09-18T10:30:21.090Z,1.10
2018-09-18T10:32:49.818Z,1.15
2018-09-18T10:35:18.590Z,1.17
2018-09-18T10:37:47.363Z,1.15
2018-09-18T10:40:16.081Z,1.17
2018-09-18T10:42:44.852Z,1.22
2018-09-18T10:45:13.577Z,1.30
2018-09-18T10:47:42.338Z,1.25
2018-09-18T10:50:11.050Z,1.30
2018-09-18T10:52:39.842Z,1.12
2018-09-18T10:55:08.602Z,0.95
2018-09-18T10:57:37.337Z,1.40
2018-09-18T11:00:07.357Z,1.20
2018-09-18T11:02:36.059Z,1.47
2018-09-18T11:05:04.868Z,1.17
2018-09-18T11:07:33.711Z,1.25
2018-09-18T11:10:02.767Z,1.50
2018-09-18T11:12:31.479Z,1.20
2018-09-18T11:15:00.239Z,1.32
2018-09-18T11:17:28.877Z,1.12
2018-09-18T11:19:57.598Z,1.22
2018-09-18T11:22:26.440Z,1.30
2018-09-18T11:24:55.076Z,1.12
2018-09-18T11:27:23.835Z,1.27
2018-09-18T11:29:53.226Z,1.17
2018-09-18T11:32:21.962Z,1.25
2018-09-18T11:34:50.709Z,1.40
2018-09-18T11:37:19.396Z,1.30
2018-09-18T11:39:48.130Z,1.00
2018-09-18T11:42:16.866Z,1.40
2018-09-18T11:44:45.569Z,1.30
2018-09-18T11:47:14.263Z,1.20
2018-09-18T11:49:42.951Z,1.00
2018-09-18T11:52:11.686Z,1.10
2018-09-18T11:54:40.467Z,1.25
2018-09-18T11:57:09.279Z,1.15
2018-09-18T11:59:37.996Z,1.15
2018-09-18T12:02:06.767Z,1.10
2018-09-18T12:04:35.567Z,1.40
2018-09-18T12:07:04.391Z,1.30
2018-09-18T12:09:33.107Z,1.20
2018-09-18T12:12:01.840Z,1.32
2018-09-18T12:14:31.429Z,1.42
2018-09-18T12:17:00.224Z,1.30
2018-09-18T12:19:28.960Z,1.20
2018-09-18T12:21:57.714Z,0.98
2018-09-18T12:24:26.607Z,1.37
2018-09-18T12:26:55.329Z,1.35
2018-09-18T12:29:24.099Z,0.95
2018-09-18T12:31:52.836Z,1.15
2018-09-18T12:34:21.682Z,1.50
2018-09-18T12:36:50.430Z,1.37
2018-09-18T12:39:19.157Z,1.30
2018-09-18T12:41:47.917Z,1.45
2018-09-18T12:44:16.632Z,1.20
2018-09-18T12:46:45.395Z,1.32
2018-09-18T12:49:14.162Z,1.60
2018-09-18T12:51:42.878Z,1.45
2018-09-18T12:54:11.783Z,1.20
2018-09-18T12:56:40.517Z,1.25
2018-09-18T12:59:09.254Z,1.40
2018-09-18T13:01:37.982Z,1.20
2018-09-18T13:04:06.755Z,1.57
2018-09-18T13:06:35.605Z,1.20
2018-09-18T13:09:06.459Z,1.15
2018-09-18T13:11:35.250Z,1.62
2018-09-18T13:14:04.139Z,1.47
2018-09-18T13:16:32.760Z,1.45
2018-09-18T13:19:01.545Z,1.35
2018-09-18T13:21:30.349Z,1.27
2018-09-18T13:23:59.294Z,1.32
2018-09-18T13:26:28.060Z,1.30
2018-09-18T13:28:56.877Z,1.60
2018-09-18T13:31:25.714Z,1.32
2018-09-18T13:33:54.438Z,1.35
2018-09-18T13:36:23.243Z,1.55
2018-09-18T13:38:51.967Z,1.25
2018-09-18T13:41:20.850Z,1.42
2018-09-18T13:43:49.522Z,1.35
2018-09-18T13:46:18.286Z,1.57
2018-09-18T13:48:47.125Z,1.32
2018-09-18T13:51:15.929Z,1.50
2018-09-18T13:53:44.767Z,1.50
2018-09-18T13:56:13.568Z,1.40
2018-09-18T13:58:42.326Z,1.40
2018-09-18T14:01:12.103Z,1.35
2018-09-18T14:03:40.812Z,1.67
2018-09-18T14:06:09.596Z,1.60
2018-09-18T14:08:38.477Z,1.72
2018-09-18T14:11:07.195Z,2.00
2018-09-18T14:13:35.942Z,1.57
2018-09-18T14:16:04.842Z,1.57
2018-09-18T14:18:33.535Z,1.60
2018-09-18T14:21:02.642Z,1.77
2018-09-18T14:23:31.419Z,1.98
2018-09-18T14:26:00.130Z,1.60
2018-09-18T14:28:29.651Z,1.40
2018-09-18T14:30:58.418Z,1.32
2018-09-18T14:33:27.219Z,1.52
2018-09-18T14:35:56.022Z,1.60
2018-09-18T14:38:24.810Z,1.80
2018-09-18T14:40:53.497Z,1.65
2018-09-18T14:43:22.256Z,1.20
2018-09-18T14:45:51.031Z,1.70
2018-09-18T14:48:19.795Z,1.60
2018-09-18T14:50:48.563Z,1.65
2018-09-18T14:53:17.330Z,1.75
2018-09-18T14:55:46.035Z,1.45
2018-09-18T14:58:14.844Z,1.57
2018-09-18T15:00:43.582Z,1.85
2018-09-18T15:03:12.401Z,1.52
2018-09-18T15:05:41.157Z,1.67
2018-09-18T15:08:09.943Z,1.55
2018-09-18T15:10:38.685Z,1.52
2018-09-18T15:13:07.453Z,1.60
2018-09-18T15:15:36.280Z,1.30
2018-09-18T15:18:05.357Z,1.27
2018-09-18T15:20:34.131Z,1.40
2018-09-18T15:23:02.972Z,1.80
2018-09-18T15:25:31.709Z,1.70
2018-09-18T15:28:00.559Z,1.98
2018-09-18T15:30:29.332Z,1.80
2018-09-18T15:32:58.090Z,1.67
2018-09-18T15:35:26.824Z,1.75
2018-09-18T15:37:55.584Z,1.30
2018-09-18T15:40:24.363Z,1.45
2018-09-18T15:42:53.170Z,1.80
2018-09-18T15:45:21.983Z,1.62
2018-09-18T15:47:50.801Z,1.80
2018-09-18T15:50:19.561Z,1.60
2018-09-18T15:52:48.261Z,1.60
2018-09-18T15:55:17.093Z,1.70
2018-09-18T15:57:45.949Z,1.50
2018-09-18T16:00:14.701Z,1.87
2018-09-18T16:02:43.487Z,1.82
2018-09-18T16:05:12.233Z,2.00
2018-09-18T16:07:40.958Z,1.95
2018-09-18T16:10:09.733Z,1.70
2018-09-18T16:12:38.492Z,2.08
2018-09-18T16:15:07.367Z,1.70
2018-09-18T16:17:36.765Z,1.77
2018-09-18T16:20:06.256Z,2.27
2018-09-18T16:22:34.987Z,1.67
2018-09-18T16:25:03.798Z,1.67
2018-09-18T16:27:32.592Z,1.90
2018-09-18T16:30:01.416Z,2.10
2018-09-18T16:32:30.199Z,1.87
2018-09-18T16:34:59.800Z,1.90
2018-09-18T16:37:28.539Z,1.62
2018-09-18T16:39:57.300Z,1.72
2018-09-18T16:42:26.100Z,2.00
2018-09-18T16:44:54.876Z,1.90
2018-09-18T16:47:23.738Z,1.77
2018-09-18T16:49:52.499Z,1.77
2018-09-18T16:52:21.415Z,1.95
2018-09-18T16:54:50.293Z,1.65
2018-09-18T16:57:18.991Z,1.95
2018-09-18T16:59:47.723Z,1.90
2018-09-18T17:02:16.505Z,2.17
2018-09-18T17:04:45.268Z,1.75
2018-09-18T17:07:14.069Z,1.70
2018-09-18T17:09:42.832Z,1.72
2018-09-18T17:12:11.587Z,1.90
2018-09-18T17:14:40.355Z,2.00
2018-09-18T17:17:09.255Z,1.77
2018-09-18T17:19:38.061Z,1.80
2018-09-18T17:22:06.878Z,1.90
2018-09-18T17:24:35.679Z,1.77
2018-09-18T17:27:04.395Z,1.85
2018-09-18T17:29:33.194Z,1.70
2018-09-18T17:32:01.906Z,1.87
2018-09-18T17:34:30.750Z,1.85
2018-09-18T17:36:59.446Z,1.75
2018-09-18T17:39:28.249Z,1.70
2018-09-18T17:41:56.986Z,1.90
2018-09-18T17:44:25.759Z,1.98
2018-09-18T17:46:54.532Z,1.92
2018-09-18T17:49:23.337Z,1.80
2018-09-18T17:51:52.464Z,1.85
2018-09-18T17:54:21.231Z,1.98
2018-09-18T17:56:50.035Z,1.85
2018-09-18T17:59:18.809Z,2.02
2018-09-18T18:01:47.556Z,1.65
2018-09-18T18:04:16.328Z,2.02
2018-09-18T18:06:45.288Z,1.57
2018-09-18T18:09:14.183Z,1.80
2018-09-18T18:11:43.259Z,2.05
2018-09-18T18:14:12.085Z,1.75
2018-09-18T18:16:40.850Z,1.57
2018-09-18T18:19:09.606Z,1.98
2018-09-18T18:21:38.392Z,1.75
2018-09-18T18:24:07.199Z,2.10
2018-09-18T18:26:36.068Z,1.70
2018-09-18T18:29:05.440Z,2.00
2018-09-18T18:31:34.172Z,1.62
2018-09-18T18:34:03.084Z,1.70
2018-09-18T18:36:31.864Z,1.85
2018-09-18T18:39:00.839Z,1.75
2018-09-18T18:41:30.058Z,1.72
2018-09-18T18:43:58.787Z,1.47
2018-09-18T18:46:27.592Z,1.67
2018-09-18T18:48:56.377Z,1.50
2018-09-18T18:51:25.129Z,1.60
2018-09-18T18:53:53.900Z,1.75
2018-09-18T18:56:22.764Z,1.82
2018-09-18T18:58:51.665Z,1.85
2018-09-18T19:01:20.451Z,1.82
2018-09-18T19:03:49.222Z,1.60
2018-09-18T19:06:18.448Z,1.92
2018-09-18T19:08:47.263Z,1.95
2018-09-18T19:11:16.142Z,1.75
2018-09-18T19:13:44.907Z,1.77
2018-09-18T19:16:13.682Z,1.60
2018-09-18T19:18:42.708Z,1.50
2018-09-18T19:21:11.449Z,1.70
2018-09-18T19:23:40.301Z,1.50
2018-09-18T19:26:09.130Z,1.80
2018-09-18T19:28:37.892Z,1.60
2018-09-18T19:31:06.657Z,1.90
2018-09-18T19:33:35.492Z,1.87
2018-09-18T19:36:04.612Z,1.70
2018-09-18T19:38:33.443Z,1.57
2018-09-18T19:41:02.213Z,1.90
2018-09-18T19:43:31.111Z,1.80
2018-09-18T19:46:00.013Z,1.40
2018-09-18T19:48:28.875Z,2.00
2018-09-18T19:50:57.645Z,1.60
2018-09-18T19:53:26.616Z,1.30
2018-09-18T19:55:55.355Z,1.82
2018-09-18T19:58:24.226Z,1.72
2018-09-18T20:00:53.032Z,1.50
2018-09-18T20:03:21.873Z,1.87
2018-09-18T20:05:50.697Z,1.67
2018-09-18T20:08:19.460Z,1.82
2018-09-18T20:10:48.248Z,1.37
2018-09-18T20:13:17.076Z,1.80
2018-09-18T20:15:45.915Z,1.80
2018-09-18T20:18:14.703Z,1.57
2018-09-18T20:20:43.430Z,1.77
2018-09-18T20:23:12.332Z,1.70
2018-09-18T20:25:41.086Z,1.80
2018-09-18T20:28:09.967Z,1.90
2018-09-18T20:30:38.792Z,1.70
2018-09-18T20:33:07.726Z,2.00
2018-09-18T20:35:36.547Z,2.05
2018-09-18T20:38:05.413Z,1.77
2018-09-18T20:40:34.256Z,1.80
2018-09-18T20:43:03.097Z,1.70
2018-09-18T20:45:31.902Z,2.37
2018-09-18T20:48:00.733Z,2.10
2018-09-18T20:50:29.482Z,2.05
2018-09-18T20:52:58.255Z,1.80
2018-09-18T20:55:27.067Z,2.00
2018-09-18T20:57:55.898Z,2.00
2018-09-18T21:00:24.808Z,1.77
2018-09-18T21:02:53.662Z,2.20
2018-09-18T21:05:22.518Z,1.67
2018-09-18T21:07:51.419Z,2.08
2018-09-18T21:10:20.225Z,2.08
2018-09-18T21:12:49.061Z,2.10
2018-09-18T21:15:17.907Z,1.62
2018-09-18T21:17:46.744Z,1.98
2018-09-18T21:20:15.595Z,2.10
2018-09-18T21:22:44.421Z,1.70
2018-09-18T21:25:21.311Z,2.10
2018-09-18T21:27:50.163Z,1.90
2018-09-18T21:30:19.009Z,2.12
2018-09-18T21:32:47.822Z,2.15
2018-09-18T21:35:16.608Z,1.92
2018-09-18T21:37:45.369Z,1.87
2018-09-18T21:40:14.163Z,1.52
2018-09-18T21:42:42.919Z,2.27
2018-09-18T21:45:11.667Z,2.45
2018-09-18T21:47:40.517Z,2.00
2018-09-18T21:50:09.462Z,2.30
2018-09-18T21:52:38.294Z,1.95
2018-09-18T21:55:07.083Z,2.25
2018-09-18T21:57:35.880Z,1.90
2018-09-18T22:00:05.629Z,2.00
2018-09-18T22:02:34.428Z,2.00
2018-09-18T22:05:03.316Z,2.08
2018-09-18T22:07:32.102Z,2.20
2018-09-18T22:10:00.954Z,1.95
2018-09-18T22:12:29.823Z,1.80
2018-09-18T22:14:58.631Z,2.52
2018-09-18T22:17:27.461Z,1.98
2018-09-18T22:19:56.258Z,2.20
2018-09-18T22:22:25.126Z,2.72
2018-09-18T22:24:53.915Z,2.00
2018-09-18T22:27:22.731Z,2.22
2018-09-18T22:29:51.564Z,2.45
2018-09-18T22:32:20.328Z,2.27
2018-09-18T22:34:49.204Z,1.75
2018-09-18T22:37:17.941Z,2.20
2018-09-18T22:39:46.701Z,2.00
2018-09-18T22:42:15.475Z,1.90
2018-09-18T22:44:44.322Z,2.30
2018-09-18T22:47:13.141Z,2.08
2018-09-18T22:49:41.893Z,1.80
2018-09-18T22:52:10.678Z,2.33
2018-09-18T22:54:39.496Z,2.25
2018-09-18T22:57:08.533Z,1.80
2018-09-18T22:59:37.272Z,2.33
2018-09-18T23:02:06.126Z,2.12
2018-09-18T23:04:34.917Z,2.50
2018-09-18T23:07:03.773Z,2.47
2018-09-18T23:09:32.536Z,2.22
2018-09-18T23:12:01.314Z,2.27
2018-09-18T23:14:30.118Z,2.30
2018-09-18T23:16:58.926Z,2.20
2018-09-18T23:19:27.944Z,2.12
2018-09-18T23:21:56.746Z,2.42
2018-09-18T23:24:25.460Z,2.45
2018-09-18T23:26:54.238Z,2.50
2018-09-18T23:29:23.055Z,1.98
2018-09-18T23:31:51.837Z,2.12
2018-09-18T23:34:20.566Z,2.80
2018-09-18T23:36:49.397Z,2.20
2018-09-18T23:39:18.167Z,2.45
2018-09-18T23:41:46.951Z,2.35
2018-09-18T23:44:15.753Z,2.20
2018-09-18T23:46:44.533Z,2.02
2018-09-18T23:49:13.255Z,2.40
2018-09-18T23:51:42.014Z,2.20
2018-09-18T23:54:10.809Z,2.50
2018-09-18T23:56:39.614Z,2.40
2018-09-18T23:59:08.443Z,1.77
